Pagrindinis puslapis
METAR-TAF:

METAR-TAF

Oro uostai :

Tivatas, Juodkalnija

platuma: 42-24N, ilguma: 018-44E, Aukštis: 5 m

Dabartinis oras

Ataskaita buvo paskelbta 44 minutes, ne 22:00 UTC
Ramus vėjas
Temperatūra 6°C
Drėgmė 65%
Slėgis 1026 hPa
Matomumas 10 km arba daugiau
nėra debesų žemiau 1500 m ir nėra kamuolinių lietaus debesų

METAR: LYTV 072200Z 00000KT CAVOK 06/00 Q1026

Laikas: 00:44 (22:44 UTC)

Prognozė

Ataskaita buvo paskelbta 5 valandos ir 44 minutes, ne 17:00 UTC
Prognozė galioja nuo 07 metu 18 UTC su 08 metu 18 UTC
Vėjas 9 kt iš Šiaurės/Šiaurės Rytų
Matomumas 10 km arba daugiau
nėra debesų žemiau 1500 m ir nėra kamuolinių lietaus debesų
Laikinai
nuo 07 metu 18 UTC su 08 metu 06 UTC
Vėjas 18 kt iš Šiaurės/Šiaurės Rytų

TAF: LYTV 071700Z 0718/0818 02009KT CAVOK TX21/0813Z TN09/0805Z TEMPO 0718/0806 02018KT

Orai ataskaitas ir orų prognozės (METAR, TAF).

turimą stotys yra geltonos ir raudonos taškus žemėlapyje.

Perkelti pele per norėdami pamatyti stoties vardą.

Tada spustelėkite, norėdami matyti oro stebėjimo ir prognozės.

Norėdami pakeisti žemėlapį: spustelėkite ant žalios mygtukų su juodo kryžiaus žemyn,; žalią mygtuką su brūkšneliu, jei norite nutolinti; arba žalių rodyklių gretimoms žemėlapius.


METAR-TAF: